sensor_id;sensor_type;location;lat;lon;timestamp;P1;durP1;ratioP1;P2;durP2;ratioP2
47523;SDS011;33253;42.144;25.884;2022-10-31T00:02:05;7.75;;;4.00;;
47523;SDS011;33253;42.144;25.884;2022-10-31T00:04:30;6.68;;;4.10;;
47523;SDS011;33253;42.144;25.884;2022-10-31T00:06:56;9.80;;;4.05;;
47523;SDS011;33253;42.144;25.884;2022-10-31T00:09:22;7.85;;;4.22;;
47523;SDS011;33253;42.144;25.884;2022-10-31T00:11:47;8.55;;;4.20;;
47523;SDS011;33253;42.144;25.884;2022-10-31T00:14:12;7.22;;;4.15;;
47523;SDS011;33253;42.144;25.884;2022-10-31T00:16:38;10.48;;;4.40;;
47523;SDS011;33253;42.144;25.884;2022-10-31T00:19:06;12.45;;;4.80;;
47523;SDS011;33253;42.144;25.884;2022-10-31T00:21:31;11.98;;;5.00;;
47523;SDS011;33253;42.144;25.884;2022-10-31T00:23:58;9.48;;;5.10;;
47523;SDS011;33253;42.144;25.884;2022-10-31T00:26:25;9.13;;;4.45;;
47523;SDS011;33253;42.144;25.884;2022-10-31T00:28:52;12.40;;;4.78;;
47523;SDS011;33253;42.144;25.884;2022-10-31T00:31:18;10.75;;;5.40;;
47523;SDS011;33253;42.144;25.884;2022-10-31T00:33:43;12.63;;;4.38;;
47523;SDS011;33253;42.144;25.884;2022-10-31T00:36:13;11.70;;;4.30;;
47523;SDS011;33253;42.144;25.884;2022-10-31T00:38:40;8.95;;;4.45;;
47523;SDS011;33253;42.144;25.884;2022-10-31T00:41:06;9.98;;;4.40;;
47523;SDS011;33253;42.144;25.884;2022-10-31T00:43:32;9.30;;;4.28;;
47523;SDS011;33253;42.144;25.884;2022-10-31T00:45:57;9.00;;;4.40;;
47523;SDS011;33253;42.144;25.884;2022-10-31T00:48:23;11.75;;;4.35;;
47523;SDS011;33253;42.144;25.884;2022-10-31T00:50:48;10.25;;;4.65;;
47523;SDS011;33253;42.144;25.884;2022-10-31T00:53:14;12.73;;;4.18;;
47523;SDS011;33253;42.144;25.884;2022-10-31T00:55:39;8.15;;;4.30;;
47523;SDS011;33253;42.144;25.884;2022-10-31T00:58:05;10.23;;;4.57;;
47523;SDS011;33253;42.144;25.884;2022-10-31T01:00:30;9.55;;;4.63;;
47523;SDS011;33253;42.144;25.884;2022-10-31T01:02:55;10.43;;;4.38;;
47523;SDS011;33253;42.144;25.884;2022-10-31T01:05:21;9.60;;;4.97;;
47523;SDS011;33253;42.144;25.884;2022-10-31T01:07:47;9.80;;;4.55;;
47523;SDS011;33253;42.144;25.884;2022-10-31T01:10:13;9.73;;;4.97;;
47523;SDS011;33253;42.144;25.884;2022-10-31T01:12:39;8.75;;;4.45;;
47523;SDS011;33253;42.144;25.884;2022-10-31T01:15:06;11.20;;;5.22;;
47523;SDS011;33253;42.144;25.884;2022-10-31T01:17:32;11.48;;;5.47;;
47523;SDS011;33253;42.144;25.884;2022-10-31T01:19:58;10.70;;;5.50;;
47523;SDS011;33253;42.144;25.884;2022-10-31T01:22:23;9.75;;;5.40;;
47523;SDS011;33253;42.144;25.884;2022-10-31T01:24:49;11.70;;;5.47;;
47523;SDS011;33253;42.144;25.884;2022-10-31T01:27:14;11.05;;;5.63;;
47523;SDS011;33253;42.144;25.884;2022-10-31T01:29:39;13.38;;;6.13;;
47523;SDS011;33253;42.144;25.884;2022-10-31T01:32:05;12.20;;;6.13;;
47523;SDS011;33253;42.144;25.884;2022-10-31T01:34:30;10.90;;;5.90;;
47523;SDS011;33253;42.144;25.884;2022-10-31T01:36:56;9.63;;;5.25;;
47523;SDS011;33253;42.144;25.884;2022-10-31T01:39:21;10.82;;;5.40;;
47523;SDS011;33253;42.144;25.884;2022-10-31T01:41:48;10.05;;;4.45;;
47523;SDS011;33253;42.144;25.884;2022-10-31T01:46:44;11.57;;;5.90;;
47523;SDS011;33253;42.144;25.884;2022-10-31T01:49:23;11.88;;;4.90;;
47523;SDS011;33253;42.144;25.884;2022-10-31T01:54:48;14.50;;;6.07;;
47523;SDS011;33253;42.144;25.884;2022-10-31T01:57:28;11.88;;;5.30;;
47523;SDS011;33253;42.144;25.884;2022-10-31T01:59:57;11.65;;;5.35;;
47523;SDS011;33253;42.144;25.884;2022-10-31T02:02:24;10.90;;;4.93;;
47523;SDS011;33253;42.144;25.884;2022-10-31T02:04:50;8.57;;;5.15;;
47523;SDS011;33253;42.144;25.884;2022-10-31T02:07:23;14.52;;;5.32;;
47523;SDS011;33253;42.144;25.884;2022-10-31T02:09:51;10.23;;;5.05;;
47523;SDS011;33253;42.144;25.884;2022-10-31T02:12:18;9.88;;;4.68;;
47523;SDS011;33253;42.144;25.884;2022-10-31T02:14:45;8.48;;;4.63;;
47523;SDS011;33253;42.144;25.884;2022-10-31T02:17:11;10.65;;;4.78;;
47523;SDS011;33253;42.144;25.884;2022-10-31T02:22:29;11.73;;;5.65;;
47523;SDS011;33253;42.144;25.884;2022-10-31T02:25:14;7.93;;;5.03;;
47523;SDS011;33253;42.144;25.884;2022-10-31T02:30:41;9.15;;;4.65;;
47523;SDS011;33253;42.144;25.884;2022-10-31T02:33:19;7.07;;;4.97;;
47523;SDS011;33253;42.144;25.884;2022-10-31T02:44:52;8.60;;;4.93;;
47523;SDS011;33253;42.144;25.884;2022-10-31T02:47:29;9.00;;;4.82;;
47523;SDS011;33253;42.144;25.884;2022-10-31T02:50:04;9.07;;;4.60;;
47523;SDS011;33253;42.144;25.884;2022-10-31T02:52:44;9.55;;;5.22;;
47523;SDS011;33253;42.144;25.884;2022-10-31T02:55:10;7.68;;;4.68;;
47523;SDS011;33253;42.144;25.884;2022-10-31T02:57:47;6.93;;;4.63;;
47523;SDS011;33253;42.144;25.884;2022-10-31T03:00:14;8.93;;;5.20;;
47523;SDS011;33253;42.144;25.884;2022-10-31T03:05:18;7.38;;;4.88;;
47523;SDS011;33253;42.144;25.884;2022-10-31T03:15:48;6.95;;;4.63;;
47523;SDS011;33253;42.144;25.884;2022-10-31T03:21:01;7.65;;;4.70;;
47523;SDS011;33253;42.144;25.884;2022-10-31T03:23:34;12.85;;;5.10;;
47523;SDS011;33253;42.144;25.884;2022-10-31T03:26:03;6.28;;;4.55;;
47523;SDS011;33253;42.144;25.884;2022-10-31T03:28:33;7.70;;;4.40;;
47523;SDS011;33253;42.144;25.884;2022-10-31T03:31:08;11.68;;;5.18;;
47523;SDS011;33253;42.144;25.884;2022-10-31T03:33:36;7.28;;;4.25;;
47523;SDS011;33253;42.144;25.884;2022-10-31T03:36:05;12.45;;;4.90;;
47523;SDS011;33253;42.144;25.884;2022-10-31T03:38:33;8.23;;;5.25;;
47523;SDS011;33253;42.144;25.884;2022-10-31T03:41:01;8.23;;;5.00;;
47523;SDS011;33253;42.144;25.884;2022-10-31T03:43:32;8.90;;;5.05;;
47523;SDS011;33253;42.144;25.884;2022-10-31T03:46:01;8.48;;;5.95;;
47523;SDS011;33253;42.144;25.884;2022-10-31T03:48:28;9.88;;;5.70;;
47523;SDS011;33253;42.144;25.884;2022-10-31T04:01:49;11.48;;;5.82;;
47523;SDS011;33253;42.144;25.884;2022-10-31T04:04:18;7.70;;;5.05;;
47523;SDS011;33253;42.144;25.884;2022-10-31T04:06:45;7.75;;;5.20;;
47523;SDS011;33253;42.144;25.884;2022-10-31T04:09:12;7.47;;;4.80;;
47523;SDS011;33253;42.144;25.884;2022-10-31T04:11:43;8.20;;;5.15;;
47523;SDS011;33253;42.144;25.884;2022-10-31T04:14:12;8.43;;;4.85;;
47523;SDS011;33253;42.144;25.884;2022-10-31T04:16:41;8.77;;;4.35;;
47523;SDS011;33253;42.144;25.884;2022-10-31T04:19:09;9.35;;;5.20;;
47523;SDS011;33253;42.144;25.884;2022-10-31T04:21:35;8.25;;;4.95;;
47523;SDS011;33253;42.144;25.884;2022-10-31T04:24:00;10.43;;;5.20;;
47523;SDS011;33253;42.144;25.884;2022-10-31T04:26:26;11.02;;;4.97;;
47523;SDS011;33253;42.144;25.884;2022-10-31T04:28:51;11.02;;;5.30;;
47523;SDS011;33253;42.144;25.884;2022-10-31T04:31:16;11.50;;;5.00;;
47523;SDS011;33253;42.144;25.884;2022-10-31T04:33:42;10.95;;;5.80;;
47523;SDS011;33253;42.144;25.884;2022-10-31T04:36:07;7.95;;;4.97;;
47523;SDS011;33253;42.144;25.884;2022-10-31T04:38:33;15.45;;;6.20;;
47523;SDS011;33253;42.144;25.884;2022-10-31T04:40:58;9.63;;;5.15;;
47523;SDS011;33253;42.144;25.884;2022-10-31T04:43:24;8.82;;;4.95;;
47523;SDS011;33253;42.144;25.884;2022-10-31T04:45:49;11.25;;;5.30;;
47523;SDS011;33253;42.144;25.884;2022-10-31T04:48:15;12.98;;;6.00;;
47523;SDS011;33253;42.144;25.884;2022-10-31T04:50:40;13.30;;;5.53;;
47523;SDS011;33253;42.144;25.884;2022-10-31T04:53:06;10.77;;;5.60;;
47523;SDS011;33253;42.144;25.884;2022-10-31T04:55:31;10.95;;;5.40;;
47523;SDS011;33253;42.144;25.884;2022-10-31T04:57:57;19.25;;;5.47;;
47523;SDS011;33253;42.144;25.884;2022-10-31T05:00:22;9.05;;;4.90;;
47523;SDS011;33253;42.144;25.884;2022-10-31T05:02:49;9.13;;;4.40;;
47523;SDS011;33253;42.144;25.884;2022-10-31T05:05:17;11.73;;;4.85;;
47523;SDS011;33253;42.144;25.884;2022-10-31T05:07:44;9.15;;;5.00;;
47523;SDS011;33253;42.144;25.884;2022-10-31T05:10:12;19.15;;;5.45;;
47523;SDS011;33253;42.144;25.884;2022-10-31T05:12:46;10.48;;;5.32;;
47523;SDS011;33253;42.144;25.884;2022-10-31T05:15:16;10.07;;;5.97;;
47523;SDS011;33253;42.144;25.884;2022-10-31T05:17:42;13.30;;;6.22;;
47523;SDS011;33253;42.144;25.884;2022-10-31T05:20:08;9.30;;;5.55;;
47523;SDS011;33253;42.144;25.884;2022-10-31T05:22:35;11.55;;;6.60;;
47523;SDS011;33253;42.144;25.884;2022-10-31T05:25:00;9.57;;;6.30;;
47523;SDS011;33253;42.144;25.884;2022-10-31T05:27:26;13.63;;;5.55;;
47523;SDS011;33253;42.144;25.884;2022-10-31T05:29:51;12.65;;;5.28;;
47523;SDS011;33253;42.144;25.884;2022-10-31T05:32:16;10.13;;;5.28;;
47523;SDS011;33253;42.144;25.884;2022-10-31T05:34:45;20.45;;;5.60;;
47523;SDS011;33253;42.144;25.884;2022-10-31T05:37:10;19.83;;;5.63;;
47523;SDS011;33253;42.144;25.884;2022-10-31T05:39:35;12.35;;;5.97;;
47523;SDS011;33253;42.144;25.884;2022-10-31T05:42:01;13.10;;;6.63;;
47523;SDS011;33253;42.144;25.884;2022-10-31T05:44:26;12.50;;;6.10;;
47523;SDS011;33253;42.144;25.884;2022-10-31T05:46:52;8.55;;;5.43;;
47523;SDS011;33253;42.144;25.884;2022-10-31T05:49:17;9.63;;;5.45;;
47523;SDS011;33253;42.144;25.884;2022-10-31T05:51:43;9.93;;;5.50;;
47523;SDS011;33253;42.144;25.884;2022-10-31T05:54:08;9.85;;;4.97;;
47523;SDS011;33253;42.144;25.884;2022-10-31T05:56:33;9.02;;;4.50;;
47523;SDS011;33253;42.144;25.884;2022-10-31T05:58:59;10.55;;;5.25;;
47523;SDS011;33253;42.144;25.884;2022-10-31T06:01:24;11.70;;;5.28;;
47523;SDS011;33253;42.144;25.884;2022-10-31T06:03:50;13.20;;;5.40;;
47523;SDS011;33253;42.144;25.884;2022-10-31T06:06:15;8.23;;;4.70;;
47523;SDS011;33253;42.144;25.884;2022-10-31T06:08:41;9.65;;;5.15;;
47523;SDS011;33253;42.144;25.884;2022-10-31T06:11:06;15.25;;;5.38;;
47523;SDS011;33253;42.144;25.884;2022-10-31T06:13:32;13.45;;;5.53;;
47523;SDS011;33253;42.144;25.884;2022-10-31T06:15:57;11.82;;;5.07;;
47523;SDS011;33253;42.144;25.884;2022-10-31T06:18:23;16.45;;;5.07;;
47523;SDS011;33253;42.144;25.884;2022-10-31T06:20:48;22.75;;;6.38;;
47523;SDS011;33253;42.144;25.884;2022-10-31T06:23:14;13.55;;;5.07;;
47523;SDS011;33253;42.144;25.884;2022-10-31T06:25:39;16.38;;;5.63;;
47523;SDS011;33253;42.144;25.884;2022-10-31T06:28:05;12.50;;;5.55;;
47523;SDS011;33253;42.144;25.884;2022-10-31T06:30:30;12.00;;;5.30;;
47523;SDS011;33253;42.144;25.884;2022-10-31T06:33:01;12.45;;;5.78;;
47523;SDS011;33253;42.144;25.884;2022-10-31T06:35:28;14.27;;;6.05;;
47523;SDS011;33253;42.144;25.884;2022-10-31T06:37:54;15.85;;;5.35;;
47523;SDS011;33253;42.144;25.884;2022-10-31T06:40:20;8.52;;;5.75;;
47523;SDS011;33253;42.144;25.884;2022-10-31T06:42:45;9.57;;;5.22;;
47523;SDS011;33253;42.144;25.884;2022-10-31T06:45:11;8.57;;;5.25;;
47523;SDS011;33253;42.144;25.884;2022-10-31T06:47:37;13.02;;;5.80;;
47523;SDS011;33253;42.144;25.884;2022-10-31T06:50:03;10.13;;;5.78;;
47523;SDS011;33253;42.144;25.884;2022-10-31T06:52:28;17.88;;;6.93;;
47523;SDS011;33253;42.144;25.884;2022-10-31T06:54:54;11.48;;;6.13;;
47523;SDS011;33253;42.144;25.884;2022-10-31T06:57:19;14.05;;;6.57;;
47523;SDS011;33253;42.144;25.884;2022-10-31T06:59:45;12.82;;;6.70;;
47523;SDS011;33253;42.144;25.884;2022-10-31T07:02:10;12.13;;;7.20;;
47523;SDS011;33253;42.144;25.884;2022-10-31T07:04:36;13.88;;;7.28;;
47523;SDS011;33253;42.144;25.884;2022-10-31T07:07:02;14.52;;;8.30;;
47523;SDS011;33253;42.144;25.884;2022-10-31T07:09:27;14.63;;;8.23;;
47523;SDS011;33253;42.144;25.884;2022-10-31T07:11:53;14.07;;;7.90;;
47523;SDS011;33253;42.144;25.884;2022-10-31T07:14:18;15.48;;;7.25;;
47523;SDS011;33253;42.144;25.884;2022-10-31T07:16:47;14.30;;;6.68;;
47523;SDS011;33253;42.144;25.884;2022-10-31T07:21:39;14.77;;;6.88;;
47523;SDS011;33253;42.144;25.884;2022-10-31T07:24:04;13.02;;;6.38;;
47523;SDS011;33253;42.144;25.884;2022-10-31T07:26:30;12.45;;;6.88;;
47523;SDS011;33253;42.144;25.884;2022-10-31T07:28:55;15.02;;;6.57;;
47523;SDS011;33253;42.144;25.884;2022-10-31T07:31:21;14.20;;;6.78;;
47523;SDS011;33253;42.144;25.884;2022-10-31T07:33:46;10.30;;;6.32;;
47523;SDS011;33253;42.144;25.884;2022-10-31T07:36:11;9.82;;;6.15;;
47523;SDS011;33253;42.144;25.884;2022-10-31T07:38:37;11.90;;;6.20;;
47523;SDS011;33253;42.144;25.884;2022-10-31T07:41:02;16.25;;;7.13;;
47523;SDS011;33253;42.144;25.884;2022-10-31T07:43:28;17.33;;;8.85;;
47523;SDS011;33253;42.144;25.884;2022-10-31T07:45:53;15.20;;;8.60;;
47523;SDS011;33253;42.144;25.884;2022-10-31T07:48:19;20.02;;;8.75;;
47523;SDS011;33253;42.144;25.884;2022-10-31T07:50:46;18.35;;;8.05;;
47523;SDS011;33253;42.144;25.884;2022-10-31T07:53:12;16.05;;;8.63;;
47523;SDS011;33253;42.144;25.884;2022-10-31T07:55:38;20.38;;;10.27;;
47523;SDS011;33253;42.144;25.884;2022-10-31T07:58:05;36.30;;;9.98;;
47523;SDS011;33253;42.144;25.884;2022-10-31T08:00:32;24.35;;;10.18;;
47523;SDS011;33253;42.144;25.884;2022-10-31T08:03:12;16.23;;;8.55;;
47523;SDS011;33253;42.144;25.884;2022-10-31T08:05:39;14.43;;;7.28;;
47523;SDS011;33253;42.144;25.884;2022-10-31T08:08:06;13.57;;;6.80;;
47523;SDS011;33253;42.144;25.884;2022-10-31T08:10:32;11.38;;;6.57;;
47523;SDS011;33253;42.144;25.884;2022-10-31T08:13:06;11.90;;;6.03;;
47523;SDS011;33253;42.144;25.884;2022-10-31T08:15:33;9.75;;;5.65;;
47523;SDS011;33253;42.144;25.884;2022-10-31T08:18:02;13.05;;;5.72;;
47523;SDS011;33253;42.144;25.884;2022-10-31T08:20:28;11.40;;;5.38;;
47523;SDS011;33253;42.144;25.884;2022-10-31T08:22:54;9.13;;;5.45;;
47523;SDS011;33253;42.144;25.884;2022-10-31T08:25:20;11.68;;;5.22;;
47523;SDS011;33253;42.144;25.884;2022-10-31T08:27:52;13.00;;;5.97;;
47523;SDS011;33253;42.144;25.884;2022-10-31T08:30:19;12.32;;;5.97;;
47523;SDS011;33253;42.144;25.884;2022-10-31T08:32:46;11.57;;;5.43;;
47523;SDS011;33253;42.144;25.884;2022-10-31T08:35:11;12.70;;;5.78;;
47523;SDS011;33253;42.144;25.884;2022-10-31T08:37:37;11.45;;;5.45;;
47523;SDS011;33253;42.144;25.884;2022-10-31T08:40:03;9.60;;;4.90;;
47523;SDS011;33253;42.144;25.884;2022-10-31T08:42:29;12.73;;;6.38;;
47523;SDS011;33253;42.144;25.884;2022-10-31T08:44:54;17.27;;;9.75;;
47523;SDS011;33253;42.144;25.884;2022-10-31T08:47:20;38.67;;;23.02;;
47523;SDS011;33253;42.144;25.884;2022-10-31T08:49:46;11.20;;;6.15;;
47523;SDS011;33253;42.144;25.884;2022-10-31T08:52:11;12.15;;;5.80;;
47523;SDS011;33253;42.144;25.884;2022-10-31T08:54:36;12.05;;;5.43;;
47523;SDS011;33253;42.144;25.884;2022-10-31T08:57:02;9.93;;;4.78;;
47523;SDS011;33253;42.144;25.884;2022-10-31T08:59:27;9.60;;;4.88;;
47523;SDS011;33253;42.144;25.884;2022-10-31T09:01:53;16.63;;;5.00;;
47523;SDS011;33253;42.144;25.884;2022-10-31T09:04:18;15.40;;;5.40;;
47523;SDS011;33253;42.144;25.884;2022-10-31T09:06:43;25.05;;;6.35;;
47523;SDS011;33253;42.144;25.884;2022-10-31T09:09:09;27.67;;;6.03;;
47523;SDS011;33253;42.144;25.884;2022-10-31T09:11:34;12.10;;;5.68;;
47523;SDS011;33253;42.144;25.884;2022-10-31T09:14:00;25.30;;;5.90;;
47523;SDS011;33253;42.144;25.884;2022-10-31T12:47:12;5.28;;;2.67;;
47523;SDS011;33253;42.144;25.884;2022-10-31T12:50:01;6.45;;;2.70;;
47523;SDS011;33253;42.144;25.884;2022-10-31T12:57:40;6.90;;;2.80;;
47523;SDS011;33253;42.144;25.884;2022-10-31T13:00:13;6.53;;;2.67;;
47523;SDS011;33253;42.144;25.884;2022-10-31T13:02:57;5.63;;;3.10;;
47523;SDS011;33253;42.144;25.884;2022-10-31T13:05:37;6.60;;;2.92;;
47523;SDS011;33253;42.144;25.884;2022-10-31T13:10:39;6.03;;;3.10;;
47523;SDS011;33253;42.144;25.884;2022-10-31T13:13:16;6.20;;;2.90;;
47523;SDS011;33253;42.144;25.884;2022-10-31T13:15:57;8.23;;;2.92;;
47523;SDS011;33253;42.144;25.884;2022-10-31T13:18:32;4.57;;;2.70;;
47523;SDS011;33253;42.144;25.884;2022-10-31T13:21:02;4.80;;;2.80;;
47523;SDS011;33253;42.144;25.884;2022-10-31T13:23:33;6.15;;;2.75;;
47523;SDS011;33253;42.144;25.884;2022-10-31T13:26:01;5.60;;;2.70;;
47523;SDS011;33253;42.144;25.884;2022-10-31T13:31:17;6.93;;;2.30;;
47523;SDS011;33253;42.144;25.884;2022-10-31T13:33:45;5.40;;;2.42;;
47523;SDS011;33253;42.144;25.884;2022-10-31T13:36:26;4.63;;;2.55;;
47523;SDS011;33253;42.144;25.884;2022-10-31T13:44:27;6.97;;;2.85;;
47523;SDS011;33253;42.144;25.884;2022-10-31T13:46:56;5.28;;;2.45;;
47523;SDS011;33253;42.144;25.884;2022-10-31T13:49:41;5.18;;;2.70;;
47523;SDS011;33253;42.144;25.884;2022-10-31T13:54:45;4.25;;;2.08;;
47523;SDS011;33253;42.144;25.884;2022-10-31T14:02:45;7.80;;;2.50;;
47523;SDS011;33253;42.144;25.884;2022-10-31T14:05:31;6.85;;;2.47;;
47523;SDS011;33253;42.144;25.884;2022-10-31T14:08:00;6.15;;;2.50;;
47523;SDS011;33253;42.144;25.884;2022-10-31T14:10:32;6.45;;;2.28;;
47523;SDS011;33253;42.144;25.884;2022-10-31T14:16:00;5.50;;;2.30;;
47523;SDS011;33253;42.144;25.884;2022-10-31T14:20:58;5.65;;;2.05;;
47523;SDS011;33253;42.144;25.884;2022-10-31T14:28:39;7.63;;;2.13;;
47523;SDS011;33253;42.144;25.884;2022-10-31T14:31:21;4.25;;;2.17;;
47523;SDS011;33253;42.144;25.884;2022-10-31T14:47:44;6.45;;;2.45;;
47523;SDS011;33253;42.144;25.884;2022-10-31T14:53:05;4.22;;;2.10;;
47523;SDS011;33253;42.144;25.884;2022-10-31T14:55:39;9.15;;;2.30;;
47523;SDS011;33253;42.144;25.884;2022-10-31T14:58:12;5.90;;;2.42;;
47523;SDS011;33253;42.144;25.884;2022-10-31T15:00:45;9.75;;;2.83;;
47523;SDS011;33253;42.144;25.884;2022-10-31T15:03:18;4.88;;;2.67;;
47523;SDS011;33253;42.144;25.884;2022-10-31T15:05:50;5.82;;;2.42;;
47523;SDS011;33253;42.144;25.884;2022-10-31T15:08:40;6.03;;;2.27;;
47523;SDS011;33253;42.144;25.884;2022-10-31T15:11:35;8.27;;;2.15;;
47523;SDS011;33253;42.144;25.884;2022-10-31T15:14:05;8.95;;;2.42;;
47523;SDS011;33253;42.144;25.884;2022-10-31T15:16:46;8.35;;;2.17;;
47523;SDS011;33253;42.144;25.884;2022-10-31T15:19:14;8.75;;;2.50;;
47523;SDS011;33253;42.144;25.884;2022-10-31T15:21:45;18.80;;;2.75;;
47523;SDS011;33253;42.144;25.884;2022-10-31T15:24:11;13.80;;;2.40;;
47523;SDS011;33253;42.144;25.884;2022-10-31T15:26:43;9.10;;;2.50;;
47523;SDS011;33253;42.144;25.884;2022-10-31T15:29:12;9.25;;;2.40;;
47523;SDS011;33253;42.144;25.884;2022-10-31T15:31:37;10.23;;;2.53;;
47523;SDS011;33253;42.144;25.884;2022-10-31T15:34:16;11.05;;;2.22;;
47523;SDS011;33253;42.144;25.884;2022-10-31T15:36:49;12.90;;;3.13;;
47523;SDS011;33253;42.144;25.884;2022-10-31T15:39:15;11.20;;;2.80;;
47523;SDS011;33253;42.144;25.884;2022-10-31T15:44:15;11.70;;;2.75;;
47523;SDS011;33253;42.144;25.884;2022-10-31T15:46:56;10.13;;;2.90;;
47523;SDS011;33253;42.144;25.884;2022-10-31T15:49:29;16.27;;;3.15;;
47523;SDS011;33253;42.144;25.884;2022-10-31T15:52:34;10.07;;;2.85;;
47523;SDS011;33253;42.144;25.884;2022-10-31T15:57:46;9.88;;;3.55;;
47523;SDS011;33253;42.144;25.884;2022-10-31T16:02:49;12.60;;;3.45;;
47523;SDS011;33253;42.144;25.884;2022-10-31T16:05:16;14.75;;;3.58;;
47523;SDS011;33253;42.144;25.884;2022-10-31T16:07:49;9.57;;;3.15;;
47523;SDS011;33253;42.144;25.884;2022-10-31T16:10:23;10.82;;;3.05;;
47523;SDS011;33253;42.144;25.884;2022-10-31T16:12:51;11.77;;;3.28;;
47523;SDS011;33253;42.144;25.884;2022-10-31T16:15:17;9.77;;;3.22;;
47523;SDS011;33253;42.144;25.884;2022-10-31T16:17:45;10.25;;;3.55;;
47523;SDS011;33253;42.144;25.884;2022-10-31T16:20:21;8.48;;;3.05;;
47523;SDS011;33253;42.144;25.884;2022-10-31T16:22:50;6.32;;;3.25;;
47523;SDS011;33253;42.144;25.884;2022-10-31T16:28:12;9.40;;;3.10;;
47523;SDS011;33253;42.144;25.884;2022-10-31T16:30:50;16.67;;;5.30;;
47523;SDS011;33253;42.144;25.884;2022-10-31T16:33:21;21.15;;;7.65;;
47523;SDS011;33253;42.144;25.884;2022-10-31T16:35:50;14.23;;;6.70;;
47523;SDS011;33253;42.144;25.884;2022-10-31T16:38:16;19.58;;;6.88;;
47523;SDS011;33253;42.144;25.884;2022-10-31T16:40:41;18.67;;;6.72;;
47523;SDS011;33253;42.144;25.884;2022-10-31T16:43:09;13.20;;;5.15;;
47523;SDS011;33253;42.144;25.884;2022-10-31T16:48:11;10.25;;;3.60;;
47523;SDS011;33253;42.144;25.884;2022-10-31T16:50:43;10.65;;;3.80;;
47523;SDS011;33253;42.144;25.884;2022-10-31T16:53:11;9.10;;;4.00;;
47523;SDS011;33253;42.144;25.884;2022-10-31T16:58:29;21.20;;;4.50;;
47523;SDS011;33253;42.144;25.884;2022-10-31T17:00:58;25.55;;;4.95;;
47523;SDS011;33253;42.144;25.884;2022-10-31T17:03:25;24.27;;;5.32;;
47523;SDS011;33253;42.144;25.884;2022-10-31T17:05:51;21.35;;;5.07;;
47523;SDS011;33253;42.144;25.884;2022-10-31T17:08:20;20.30;;;5.63;;
47523;SDS011;33253;42.144;25.884;2022-10-31T17:10:46;15.73;;;6.18;;
47523;SDS011;33253;42.144;25.884;2022-10-31T17:13:17;17.85;;;6.95;;
47523;SDS011;33253;42.144;25.884;2022-10-31T17:15:47;22.88;;;7.60;;
47523;SDS011;33253;42.144;25.884;2022-10-31T17:18:18;23.80;;;7.95;;
47523;SDS011;33253;42.144;25.884;2022-10-31T17:20:45;47.13;;;8.93;;
47523;SDS011;33253;42.144;25.884;2022-10-31T17:23:12;41.05;;;10.10;;
47523;SDS011;33253;42.144;25.884;2022-10-31T17:25:39;34.00;;;9.18;;
47523;SDS011;33253;42.144;25.884;2022-10-31T17:28:06;31.38;;;8.45;;
47523;SDS011;33253;42.144;25.884;2022-10-31T17:30:37;24.20;;;6.95;;
47523;SDS011;33253;42.144;25.884;2022-10-31T17:33:02;18.85;;;6.90;;
47523;SDS011;33253;42.144;25.884;2022-10-31T17:35:28;16.42;;;6.00;;
47523;SDS011;33253;42.144;25.884;2022-10-31T17:37:53;17.45;;;5.63;;
47523;SDS011;33253;42.144;25.884;2022-10-31T17:40:19;18.33;;;7.00;;
47523;SDS011;33253;42.144;25.884;2022-10-31T17:42:53;19.48;;;8.00;;
47523;SDS011;33253;42.144;25.884;2022-10-31T17:45:21;17.27;;;6.55;;
47523;SDS011;33253;42.144;25.884;2022-10-31T17:47:48;22.40;;;7.63;;
47523;SDS011;33253;42.144;25.884;2022-10-31T17:50:16;18.83;;;6.90;;
47523;SDS011;33253;42.144;25.884;2022-10-31T17:52:42;27.95;;;7.10;;
47523;SDS011;33253;42.144;25.884;2022-10-31T17:55:08;22.88;;;7.70;;
47523;SDS011;33253;42.144;25.884;2022-10-31T17:57:34;45.20;;;10.25;;
47523;SDS011;33253;42.144;25.884;2022-10-31T18:00:01;27.67;;;8.20;;
47523;SDS011;33253;42.144;25.884;2022-10-31T18:02:28;24.05;;;9.27;;
47523;SDS011;33253;42.144;25.884;2022-10-31T18:04:53;23.88;;;9.60;;
47523;SDS011;33253;42.144;25.884;2022-10-31T18:07:19;28.75;;;11.20;;
47523;SDS011;33253;42.144;25.884;2022-10-31T18:09:45;29.45;;;11.75;;
47523;SDS011;33253;42.144;25.884;2022-10-31T18:12:33;33.35;;;11.40;;
47523;SDS011;33253;42.144;25.884;2022-10-31T18:15:00;45.47;;;12.38;;
47523;SDS011;33253;42.144;25.884;2022-10-31T18:17:26;46.38;;;11.30;;
47523;SDS011;33253;42.144;25.884;2022-10-31T18:19:51;31.10;;;10.93;;
47523;SDS011;33253;42.144;25.884;2022-10-31T18:22:17;33.05;;;12.13;;
47523;SDS011;33253;42.144;25.884;2022-10-31T18:24:42;49.47;;;13.55;;
47523;SDS011;33253;42.144;25.884;2022-10-31T18:27:09;31.00;;;11.73;;
47523;SDS011;33253;42.144;25.884;2022-10-31T18:29:35;28.20;;;10.35;;
47523;SDS011;33253;42.144;25.884;2022-10-31T18:32:01;21.90;;;11.63;;
47523;SDS011;33253;42.144;25.884;2022-10-31T18:34:26;29.50;;;12.02;;
47523;SDS011;33253;42.144;25.884;2022-10-31T18:36:51;29.40;;;11.85;;
47523;SDS011;33253;42.144;25.884;2022-10-31T18:39:17;34.13;;;13.43;;
47523;SDS011;33253;42.144;25.884;2022-10-31T18:41:42;26.48;;;12.98;;
47523;SDS011;33253;42.144;25.884;2022-10-31T18:44:08;27.25;;;12.65;;
47523;SDS011;33253;42.144;25.884;2022-10-31T18:46:34;29.38;;;12.98;;
47523;SDS011;33253;42.144;25.884;2022-10-31T18:49:01;27.45;;;9.68;;
47523;SDS011;33253;42.144;25.884;2022-10-31T18:51:28;23.48;;;8.85;;
47523;SDS011;33253;42.144;25.884;2022-10-31T18:53:55;20.58;;;9.57;;
47523;SDS011;33253;42.144;25.884;2022-10-31T18:56:22;23.95;;;9.48;;
47523;SDS011;33253;42.144;25.884;2022-10-31T18:58:47;26.42;;;8.65;;
47523;SDS011;33253;42.144;25.884;2022-10-31T19:01:14;22.35;;;9.07;;
47523;SDS011;33253;42.144;25.884;2022-10-31T19:03:42;26.30;;;9.13;;
47523;SDS011;33253;42.144;25.884;2022-10-31T19:06:09;17.85;;;8.10;;
47523;SDS011;33253;42.144;25.884;2022-10-31T19:08:36;21.85;;;7.90;;
47523;SDS011;33253;42.144;25.884;2022-10-31T19:11:10;17.02;;;8.57;;
47523;SDS011;33253;42.144;25.884;2022-10-31T19:13:37;18.58;;;7.72;;
47523;SDS011;33253;42.144;25.884;2022-10-31T19:16:09;17.35;;;7.95;;
47523;SDS011;33253;42.144;25.884;2022-10-31T19:18:37;20.55;;;8.02;;
47523;SDS011;33253;42.144;25.884;2022-10-31T19:21:04;23.85;;;8.43;;
47523;SDS011;33253;42.144;25.884;2022-10-31T19:23:33;26.73;;;8.20;;
47523;SDS011;33253;42.144;25.884;2022-10-31T19:25:59;20.80;;;7.30;;
47523;SDS011;33253;42.144;25.884;2022-10-31T19:28:27;18.30;;;7.55;;
47523;SDS011;33253;42.144;25.884;2022-10-31T19:30:54;25.48;;;7.93;;
47523;SDS011;33253;42.144;25.884;2022-10-31T19:33:20;19.05;;;9.27;;
47523;SDS011;33253;42.144;25.884;2022-10-31T19:35:45;34.88;;;14.23;;
47523;SDS011;33253;42.144;25.884;2022-10-31T19:38:11;33.30;;;13.50;;
47523;SDS011;33253;42.144;25.884;2022-10-31T19:40:36;29.15;;;11.25;;
47523;SDS011;33253;42.144;25.884;2022-10-31T19:43:03;19.67;;;10.40;;
47523;SDS011;33253;42.144;25.884;2022-10-31T19:45:28;20.85;;;8.82;;
47523;SDS011;33253;42.144;25.884;2022-10-31T19:47:54;26.40;;;10.25;;
47523;SDS011;33253;42.144;25.884;2022-10-31T19:50:19;26.30;;;10.75;;
47523;SDS011;33253;42.144;25.884;2022-10-31T19:52:45;26.90;;;10.90;;
47523;SDS011;33253;42.144;25.884;2022-10-31T19:55:11;25.42;;;10.20;;
47523;SDS011;33253;42.144;25.884;2022-10-31T19:57:36;20.77;;;10.63;;